Time;durP1;ratioP1;P1;durP2;ratioP2;P2;SDS_P1;SDS_P2;PMS_P1;PMS_P2;Temp;Humidity;BMP_temperature;BMP_pressure;BME280_temperature;BME280_humidity;BME280_pressure;Samples;Min_cycle;Max_cycle;Signal;HPM_P1;HPM_P2
2023/06/28 00:02:20;;;;;;;8.13;1.60;;;17.30;99.90;;;;;;5055037;28;20379;-60
2023/06/28 00:04:46;;;;;;;5.80;1.40;;;17.30;99.90;;;;;;5054686;28;20013;-57
2023/06/28 00:07:11;;;;;;;9.50;1.63;;;17.30;99.90;;;;;;5054588;28;20040;-60
2023/06/28 00:09:37;;;;;;;10.25;2.05;;;17.30;99.90;;;;;;5054533;28;20640;-61
2023/06/28 00:12:03;;;;;;;7.13;3.08;;;17.20;99.90;;;;;;5054829;28;20383;-59
2023/06/28 00:14:28;;;;;;;2.85;1.67;;;17.10;99.90;;;;;;5054552;28;20028;-55
2023/06/28 00:16:54;;;;;;;3.70;1.50;;;17.20;99.90;;;;;;5054308;28;20021;-61
2023/06/28 00:19:26;;;;;;;14.82;2.30;;;17.20;99.90;;;;;;5054535;28;20036;-60
2023/06/28 00:21:53;;;;;;;9.40;2.15;;;17.10;99.90;;;;;;5054364;28;20021;-60
2023/06/28 00:24:19;;;;;;;4.40;2.10;;;17.20;99.90;;;;;;5054444;28;20379;-55
2023/06/28 00:26:44;;;;;;;7.97;1.83;;;17.00;99.90;;;;;;5054162;28;20028;-57
2023/06/28 00:29:10;;;;;;;7.72;1.70;;;17.00;99.90;;;;;;5054173;28;20117;-60
2023/06/28 00:31:35;;;;;;;8.57;2.15;;;17.10;99.90;;;;;;5054005;28;20490;-61
2023/06/28 00:34:01;;;;;;;3.42;1.92;;;17.20;99.90;;;;;;5052867;28;20596;-57
2023/06/28 00:36:26;;;;;;;4.38;1.80;;;17.10;99.90;;;;;;5053966;28;20478;-60
2023/06/28 00:38:52;;;;;;;16.40;2.33;;;17.10;99.90;;;;;;5053967;28;20142;-59
2023/06/28 00:41:17;;;;;;;10.23;2.00;;;17.10;99.90;;;;;;5053918;28;20036;-57
2023/06/28 00:43:43;;;;;;;6.03;1.60;;;17.00;99.90;;;;;;5053876;28;20043;-61
2023/06/28 00:46:08;;;;;;;11.88;2.10;;;17.10;99.90;;;;;;5053880;28;20017;-59
2023/06/28 00:48:34;;;;;;;4.82;1.80;;;17.00;99.90;;;;;;5053870;28;20056;-60
2023/06/28 00:51:02;;;;;;;5.93;1.95;;;17.00;99.90;;;;;;5053785;28;20100;-60
2023/06/28 00:53:28;;;;;;;4.72;1.88;;;16.90;99.90;;;;;;5053725;28;20009;-61
2023/06/28 00:55:55;;;;;;;15.80;2.17;;;16.90;99.90;;;;;;5053734;28;20029;-61
2023/06/28 00:58:21;;;;;;;2.83;1.85;;;16.90;99.90;;;;;;5053625;28;20577;-59
2023/06/28 01:00:47;;;;;;;12.73;1.88;;;16.90;99.90;;;;;;5053935;28;20106;-59
2023/06/28 01:03:17;;;;;;;5.10;1.95;;;16.90;99.90;;;;;;5054147;28;20394;-60
2023/06/28 01:05:47;;;;;;;7.03;1.70;;;17.00;99.90;;;;;;5053368;28;20021;-58
2023/06/28 01:08:14;;;;;;;10.95;1.75;;;17.00;99.90;;;;;;5053960;28;20033;-56
2023/06/28 01:10:40;;;;;;;6.22;1.92;;;17.10;99.90;;;;;;5053311;28;20025;-58
2023/06/28 01:13:06;;;;;;;3.45;2.17;;;17.10;99.90;;;;;;5053444;28;20378;-57
2023/06/28 01:15:32;;;;;;;12.77;2.33;;;17.10;99.90;;;;;;5053285;28;20031;-56
2023/06/28 01:18:00;;;;;;;11.93;2.40;;;17.10;99.90;;;;;;5053075;28;20036;-61
2023/06/28 01:20:27;;;;;;;6.63;2.10;;;17.10;99.90;;;;;;5053284;28;20028;-58
2023/06/28 01:22:55;;;;;;;8.55;2.10;;;17.10;99.90;;;;;;5053213;28;20467;-54
2023/06/28 01:25:21;;;;;;;9.93;1.75;;;17.00;99.90;;;;;;5053221;28;20028;-58
2023/06/28 01:27:48;;;;;;;8.57;2.08;;;17.10;99.90;;;;;;5052877;28;20021;-55
2023/06/28 01:30:17;;;;;;;10.00;1.95;;;17.00;99.90;;;;;;5053168;28;20044;-57
2023/06/28 01:32:43;;;;;;;7.70;1.95;;;17.10;99.90;;;;;;5052814;28;20021;-58
2023/06/28 01:35:10;;;;;;;2.95;1.75;;;17.00;99.90;;;;;;5053266;28;20020;-57
2023/06/28 01:37:38;;;;;;;13.60;2.10;;;17.00;99.90;;;;;;5053018;28;20028;-60
2023/06/28 01:40:05;;;;;;;9.27;1.83;;;16.90;99.90;;;;;;5052856;28;20032;-57
2023/06/28 01:42:33;;;;;;;7.75;2.28;;;17.00;99.90;;;;;;5052818;28;20106;-58
2023/06/28 01:44:59;;;;;;;4.55;1.73;;;17.00;99.90;;;;;;5059902;28;20127;-57
2023/06/28 01:47:25;;;;;;;14.77;1.80;;;16.90;99.90;;;;;;5058551;28;20084;-59
2023/06/28 01:49:50;;;;;;;6.95;2.25;;;16.80;99.90;;;;;;5055400;28;20039;-60
2023/06/28 01:52:16;;;;;;;5.57;2.55;;;16.80;99.90;;;;;;5052993;28;20032;-54
2023/06/28 01:54:41;;;;;;;11.88;1.88;;;16.70;99.90;;;;;;5052675;28;20052;-59
2023/06/28 01:57:07;;;;;;;8.07;2.28;;;16.70;99.90;;;;;;5053024;28;20207;-60
2023/06/28 01:59:32;;;;;;;5.70;2.45;;;16.60;99.90;;;;;;5052356;28;20021;-56
2023/06/28 02:01:58;;;;;;;8.10;1.70;;;16.50;99.90;;;;;;5052364;28;20482;-60
2023/06/28 02:04:24;;;;;;;4.93;1.45;;;16.50;99.90;;;;;;5052461;28;20015;-59
2023/06/28 02:06:49;;;;;;;5.88;1.40;;;16.50;99.90;;;;;;5052338;28;20483;-59
2023/06/28 02:09:15;;;;;;;5.97;2.10;;;16.50;99.90;;;;;;5052415;28;20029;-60
2023/06/28 02:11:40;;;;;;;9.02;2.47;;;16.60;99.90;;;;;;5052336;28;20112;-60
2023/06/28 02:14:06;;;;;;;8.85;2.00;;;16.60;99.90;;;;;;5052244;28;20066;-59
2023/06/28 02:16:31;;;;;;;6.57;1.77;;;16.50;99.90;;;;;;5051691;28;20398;-58
2023/06/28 02:19:00;;;;;;;11.75;2.10;;;16.30;99.90;;;;;;5051880;28;20033;-53
2023/06/28 02:21:26;;;;;;;5.32;1.83;;;16.20;99.90;;;;;;5052070;28;20021;-59
2023/06/28 02:23:51;;;;;;;6.85;2.03;;;16.20;99.90;;;;;;5051808;28;20376;-58
2023/06/28 02:26:17;;;;;;;8.60;2.28;;;16.10;99.90;;;;;;5051702;28;20387;-55
2023/06/28 02:28:42;;;;;;;7.68;2.20;;;15.90;99.90;;;;;;5051792;28;20032;-52
2023/06/28 02:31:08;;;;;;;8.80;1.90;;;15.90;99.90;;;;;;5051759;28;20020;-53
2023/06/28 02:33:33;;;;;;;8.27;1.98;;;15.80;99.90;;;;;;5051757;28;20044;-59
2023/06/28 02:35:59;;;;;;;7.65;2.22;;;15.70;99.90;;;;;;5051678;28;20021;-59
2023/06/28 02:38:25;;;;;;;5.60;1.90;;;15.70;99.90;;;;;;5051581;28;20036;-57
2023/06/28 02:40:51;;;;;;;4.32;1.80;;;15.60;99.90;;;;;;5051604;28;20538;-57
2023/06/28 02:43:16;;;;;;;3.65;1.90;;;15.60;99.90;;;;;;5051577;28;20086;-60
2023/06/28 02:45:42;;;;;;;3.67;1.92;;;15.60;99.90;;;;;;5051893;28;20453;-59
2023/06/28 02:48:07;;;;;;;10.50;2.83;;;15.60;99.90;;;;;;5051489;28;20033;-57
2023/06/28 02:50:33;;;;;;;10.27;2.45;;;15.50;99.90;;;;;;5051620;28;20100;-54
2023/06/28 02:52:58;;;;;;;7.10;2.05;;;15.50;99.90;;;;;;5051368;28;20471;-57
2023/06/28 02:55:24;;;;;;;5.25;1.77;;;15.50;99.90;;;;;;5050715;28;20031;-57
2023/06/28 02:57:50;;;;;;;9.30;2.33;;;15.50;99.90;;;;;;5051252;28;20098;-57
2023/06/28 03:00:16;;;;;;;5.15;1.77;;;15.50;99.90;;;;;;5051319;28;20652;-57
2023/06/28 03:02:42;;;;;;;6.07;1.83;;;15.50;99.90;;;;;;5051232;28;20021;-55
2023/06/28 03:05:07;;;;;;;5.07;2.10;;;15.40;99.90;;;;;;5051322;28;20074;-58
2023/06/28 03:07:33;;;;;;;10.82;2.13;;;15.40;99.90;;;;;;5051226;28;20375;-55
2023/06/28 03:09:59;;;;;;;6.10;2.03;;;15.30;99.90;;;;;;5051189;28;20036;-52
2023/06/28 03:12:24;;;;;;;4.00;1.83;;;15.30;99.90;;;;;;5051376;28;20383;-52
2023/06/28 03:14:50;;;;;;;7.60;2.63;;;15.20;99.90;;;;;;5051046;28;20032;-56
2023/06/28 03:17:19;;;;;;;10.63;1.85;;;15.30;99.90;;;;;;5051069;28;20025;-60
2023/06/28 03:19:45;;;;;;;5.85;2.15;;;15.30;99.90;;;;;;5051108;28;20494;-58
2023/06/28 03:22:10;;;;;;;4.65;2.20;;;15.20;99.90;;;;;;5051255;28;20021;-59
2023/06/28 03:24:36;;;;;;;3.38;1.88;;;15.30;99.90;;;;;;5051045;28;20024;-59
2023/06/28 03:27:02;;;;;;;8.07;2.80;;;15.30;99.90;;;;;;5049800;28;20108;-59
2023/06/28 03:29:27;;;;;;;7.63;2.08;;;15.40;99.90;;;;;;5051073;28;20036;-60
2023/06/28 03:31:55;;;;;;;9.65;2.30;;;15.40;99.90;;;;;;5051071;28;20090;-56
2023/06/28 03:34:20;;;;;;;6.38;2.78;;;15.30;99.90;;;;;;5051210;28;20104;-57
2023/06/28 03:36:47;;;;;;;10.13;2.65;;;15.40;99.90;;;;;;5050872;28;20096;-58
2023/06/28 03:39:13;;;;;;;13.07;2.90;;;15.40;99.90;;;;;;5050961;28;20558;-59
2023/06/28 03:41:38;;;;;;;7.18;2.53;;;15.40;99.90;;;;;;5050916;28;20072;-54
2023/06/28 03:44:04;;;;;;;2.63;1.80;;;15.40;99.90;;;;;;5050973;28;20445;-54
2023/06/28 03:46:29;;;;;;;11.93;2.60;;;15.40;99.90;;;;;;5050772;28;20364;-56
2023/06/28 03:48:55;;;;;;;3.08;1.90;;;15.40;99.90;;;;;;5051009;28;20024;-55
2023/06/28 03:51:20;;;;;;;3.25;1.85;;;15.50;99.90;;;;;;5051065;28;20052;-53
2023/06/28 03:53:46;;;;;;;8.50;2.10;;;15.50;99.90;;;;;;5050676;28;20386;-55
2023/06/28 03:56:12;;;;;;;5.00;1.70;;;15.50;99.90;;;;;;5050790;28;20049;-52
2023/06/28 03:58:38;;;;;;;9.27;2.15;;;15.50;99.90;;;;;;5050427;28;20108;-60
2023/06/28 04:01:03;;;;;;;10.85;2.33;;;15.50;99.90;;;;;;5050858;28;20040;-58
2023/06/28 04:03:29;;;;;;;13.18;2.13;;;15.60;99.90;;;;;;5050819;28;20033;-56
2023/06/28 04:05:54;;;;;;;7.60;2.30;;;15.60;99.90;;;;;;5050677;28;20017;-57
2023/06/28 04:08:20;;;;;;;15.82;2.53;;;15.60;99.90;;;;;;5053605;28;20021;-58
2023/06/28 04:10:46;;;;;;;4.18;1.55;;;15.70;99.90;;;;;;5054401;28;20020;-57
2023/06/28 04:13:11;;;;;;;7.93;2.03;;;15.70;99.90;;;;;;5054331;28;20029;-58
2023/06/28 04:15:37;;;;;;;4.57;1.90;;;15.70;99.90;;;;;;5054253;28;20025;-59
2023/06/28 04:18:02;;;;;;;7.22;2.75;;;15.70;99.90;;;;;;5054226;28;20072;-57
2023/06/28 04:20:28;;;;;;;7.25;2.10;;;15.70;99.90;;;;;;5054305;28;20048;-58
2023/06/28 04:22:53;;;;;;;4.38;1.73;;;15.70;99.90;;;;;;5054095;28;20021;-59
2023/06/28 04:25:19;;;;;;;8.10;1.98;;;15.70;99.90;;;;;;5054191;28;20108;-55
2023/06/28 04:27:45;;;;;;;10.52;2.53;;;15.70;99.90;;;;;;5053822;28;20094;-56
2023/06/28 04:30:10;;;;;;;5.50;2.35;;;15.70;99.90;;;;;;5054113;28;20479;-56
2023/06/28 04:32:36;;;;;;;6.10;2.55;;;15.70;99.90;;;;;;5055910;28;20088;-62
2023/06/28 04:35:03;;;;;;;9.45;2.13;;;15.70;99.90;;;;;;5067805;28;20025;-59
2023/06/28 04:37:31;;;;;;;8.13;2.30;;;15.70;99.90;;;;;;5065422;28;20047;-60
2023/06/28 04:40:00;;;;;;;8.43;2.33;;;15.70;99.90;;;;;;5060117;28;20379;-60
2023/06/28 04:42:26;;;;;;;14.73;2.92;;;15.80;99.90;;;;;;5054216;28;20021;-57
2023/06/28 04:44:54;;;;;;;10.10;2.60;;;15.90;99.90;;;;;;5053850;28;20017;-61
2023/06/28 04:47:20;;;;;;;8.73;2.42;;;16.10;99.90;;;;;;5052405;28;20013;-58
2023/06/28 04:49:49;;;;;;;9.20;2.17;;;16.10;99.90;;;;;;5053698;28;20117;-60
2023/06/28 04:52:18;;;;;;;6.45;2.22;;;16.20;99.90;;;;;;5053836;28;20029;-60
2023/06/28 04:54:44;;;;;;;9.23;2.45;;;16.20;99.90;;;;;;5053357;28;20032;-60
2023/06/28 04:57:10;;;;;;;7.05;2.35;;;16.20;99.90;;;;;;5053438;28;20074;-60
2023/06/28 04:59:36;;;;;;;17.48;2.50;;;16.30;99.90;;;;;;5053405;28;20081;-60
2023/06/28 05:02:05;;;;;;;6.80;1.90;;;16.40;99.90;;;;;;5053531;28;20024;-58
2023/06/28 05:04:32;;;;;;;11.75;2.40;;;16.40;99.90;;;;;;5053277;28;20471;-56
2023/06/28 05:07:04;;;;;;;6.53;1.98;;;16.50;99.90;;;;;;5053008;28;20048;-58
2023/06/28 05:09:31;;;;;;;8.23;2.40;;;16.50;99.90;;;;;;5053271;28;20029;-56
2023/06/28 05:11:56;;;;;;;11.32;2.15;;;16.60;99.90;;;;;;5053372;28;20033;-61
2023/06/28 05:14:23;;;;;;;5.05;2.35;;;16.70;99.90;;;;;;5053294;28;20104;-58
2023/06/28 05:16:49;;;;;;;6.35;2.22;;;16.70;99.90;;;;;;5053028;28;20040;-59
2023/06/28 05:19:14;;;;;;;3.63;1.95;;;16.80;99.90;;;;;;5052385;28;20033;-54
2023/06/28 05:21:40;;;;;;;5.63;1.80;;;16.90;99.90;;;;;;5053169;28;20425;-56
2023/06/28 05:24:05;;;;;;;9.27;2.20;;;16.90;99.90;;;;;;5052967;28;20048;-59
2023/06/28 05:26:31;;;;;;;5.63;1.92;;;17.00;99.90;;;;;;5052943;28;20035;-60
2023/06/28 05:28:57;;;;;;;7.57;2.42;;;17.00;99.90;;;;;;5052981;28;20029;-58
2023/06/28 05:31:22;;;;;;;10.27;1.77;;;17.10;99.90;;;;;;5053057;28;20063;-58
2023/06/28 05:33:48;;;;;;;4.55;2.15;;;17.10;99.90;;;;;;5052768;28;20055;-59
2023/06/28 05:36:14;;;;;;;7.30;1.90;;;17.20;99.90;;;;;;5052796;28;20037;-57
2023/06/28 05:38:40;;;;;;;5.93;1.90;;;17.30;99.90;;;;;;5052350;28;20031;-60
2023/06/28 05:41:16;;;;;;;5.15;1.63;;;17.20;99.90;;;;;;5052828;28;20024;-58
2023/06/28 05:43:44;;;;;;;3.90;1.60;;;17.30;99.90;;;;;;5052708;28;20017;-59
2023/06/28 05:46:09;;;;;;;6.30;1.92;;;17.30;99.90;;;;;;5052643;28;20021;-60
2023/06/28 05:48:35;;;;;;;8.02;1.67;;;17.30;99.90;;;;;;5052453;28;20078;-59
2023/06/28 05:51:00;;;;;;;18.35;2.85;;;17.40;99.90;;;;;;5052383;28;20035;-61
2023/06/28 05:53:26;;;;;;;5.72;1.70;;;17.40;99.90;;;;;;5052408;28;20092;-58
2023/06/28 05:55:52;;;;;;;7.57;1.77;;;17.30;99.90;;;;;;5052507;28;20021;-56
2023/06/28 05:58:20;;;;;;;11.07;2.40;;;17.40;99.90;;;;;;5052881;28;20442;-58
2023/06/28 06:00:45;;;;;;;5.90;1.70;;;17.40;99.90;;;;;;5052600;28;20025;-58
2023/06/28 06:03:11;;;;;;;3.55;1.42;;;17.50;99.90;;;;;;5051139;28;20021;-54
2023/06/28 06:05:39;;;;;;;4.50;2.10;;;17.50;99.90;;;;;;5052110;28;20025;-56
2023/06/28 06:08:05;;;;;;;3.00;1.58;;;17.50;99.90;;;;;;5052249;28;20020;-59
2023/06/28 06:10:31;;;;;;;7.72;2.20;;;17.60;99.90;;;;;;5052255;28;20036;-59
2023/06/28 06:12:56;;;;;;;7.55;2.10;;;17.60;99.90;;;;;;5052067;28;20033;-59
2023/06/28 06:15:22;;;;;;;3.75;1.80;;;17.60;99.90;;;;;;5052129;28;20074;-60
2023/06/28 06:17:50;;;;;;;9.15;2.17;;;17.50;99.90;;;;;;5050737;28;20037;-60
2023/06/28 06:20:15;;;;;;;6.55;2.15;;;17.60;99.90;;;;;;5051888;28;20532;-56
2023/06/28 06:22:42;;;;;;;6.38;2.10;;;17.70;99.90;;;;;;5051804;28;20016;-57
2023/06/28 06:25:08;;;;;;;7.22;2.33;;;17.70;99.90;;;;;;5051959;28;20020;-61
2023/06/28 06:27:34;;;;;;;10.07;2.22;;;17.80;99.90;;;;;;5051843;28;20097;-57
2023/06/28 06:30:00;;;;;;;12.23;2.75;;;17.70;99.90;;;;;;5051751;28;20116;-58
2023/06/28 06:32:26;;;;;;;9.70;2.95;;;17.70;99.90;;;;;;5051946;28;20029;-61
2023/06/28 06:34:52;;;;;;;8.60;2.00;;;17.60;99.90;;;;;;5051435;28;20104;-60
2023/06/28 06:37:17;;;;;;;8.23;1.98;;;17.60;99.90;;;;;;5051596;28;20027;-58
2023/06/28 06:39:43;;;;;;;5.22;1.88;;;17.70;99.90;;;;;;5051403;28;20040;-58
2023/06/28 06:42:09;;;;;;;9.13;2.50;;;17.80;99.90;;;;;;5051727;28;20017;-59
2023/06/28 06:44:34;;;;;;;9.80;3.47;;;17.80;99.90;;;;;;5051595;28;20021;-55
2023/06/28 06:47:01;;;;;;;12.23;2.55;;;17.80;99.90;;;;;;5051308;28;20017;-55
2023/06/28 06:49:27;;;;;;;8.07;2.75;;;17.70;99.90;;;;;;5051463;28;20024;-55
2023/06/28 06:51:53;;;;;;;7.30;2.70;;;17.70;99.90;;;;;;5051532;28;20067;-60
2023/06/28 06:54:18;;;;;;;6.75;2.25;;;17.80;99.90;;;;;;5051426;28;20028;-61
2023/06/28 06:56:44;;;;;;;9.80;2.40;;;17.90;99.90;;;;;;5051206;28;20013;-61
2023/06/28 06:59:09;;;;;;;6.57;2.38;;;17.90;99.90;;;;;;5051313;28;20036;-58
2023/06/28 07:01:35;;;;;;;6.68;2.08;;;17.90;99.90;;;;;;5051376;28;20025;-61
2023/06/28 07:04:00;;;;;;;8.48;2.53;;;18.00;99.90;;;;;;5051082;28;20029;-60
2023/06/28 07:06:26;;;;;;;9.63;2.28;;;18.00;99.90;;;;;;5051105;28;20021;-61
2023/06/28 07:08:51;;;;;;;10.10;2.20;;;18.00;99.90;;;;;;5051213;28;20021;-60
2023/06/28 07:11:17;;;;;;;8.75;2.25;;;18.10;99.90;;;;;;5051419;28;20104;-59
2023/06/28 07:13:43;;;;;;;9.85;2.50;;;18.10;99.90;;;;;;5051182;28;20024;-57
2023/06/28 07:16:08;;;;;;;10.85;2.47;;;17.90;99.90;;;;;;5051306;28;20032;-61
2023/06/28 07:18:34;;;;;;;8.43;2.72;;;18.00;99.90;;;;;;5049847;28;20387;-62
2023/06/28 07:20:59;;;;;;;5.20;2.78;;;18.00;99.90;;;;;;5051123;28;20041;-61
2023/06/28 07:23:25;;;;;;;10.60;2.83;;;18.00;99.90;;;;;;5051193;28;20021;-57
2023/06/28 07:25:51;;;;;;;12.27;2.85;;;17.90;99.90;;;;;;5051070;28;20356;-57
2023/06/28 07:28:16;;;;;;;15.27;2.85;;;18.00;99.90;;;;;;5051058;28;20009;-55
2023/06/28 07:30:53;;;;;;;10.98;2.95;;;17.90;99.90;;;;;;5051102;28;20031;-58
2023/06/28 07:33:21;;;;;;;16.83;3.72;;;18.00;99.90;;;;;;5051028;28;20079;-55
2023/06/28 07:35:47;;;;;;;10.80;2.38;;;18.10;99.90;;;;;;5051021;28;20021;-59
2023/06/28 07:38:12;;;;;;;10.05;2.28;;;18.20;99.90;;;;;;5050979;28;20427;-59
2023/06/28 07:40:38;;;;;;;13.15;2.75;;;18.20;99.90;;;;;;5050831;28;20036;-56
2023/06/28 07:43:03;;;;;;;18.33;3.45;;;18.20;99.90;;;;;;5053669;28;20459;-61
2023/06/28 07:45:29;;;;;;;7.25;2.80;;;18.10;99.90;;;;;;5054883;28;20028;-59
2023/06/28 07:47:54;;;;;;;11.10;2.42;;;18.20;99.90;;;;;;5054756;28;20025;-61
2023/06/28 07:50:22;;;;;;;7.03;2.17;;;18.30;99.90;;;;;;5054903;28;20017;-61
2023/06/28 07:52:47;;;;;;;10.35;3.10;;;18.30;99.90;;;;;;5054739;28;20025;-59
2023/06/28 07:55:13;;;;;;;8.68;3.15;;;18.30;99.90;;;;;;5054816;28;20378;-59
2023/06/28 07:57:39;;;;;;;7.68;3.00;;;18.30;99.90;;;;;;5054655;28;20459;-61
2023/06/28 08:00:05;;;;;;;9.90;2.97;;;18.30;99.90;;;;;;5054602;28;20135;-61
2023/06/28 08:02:30;;;;;;;12.68;2.83;;;18.40;99.90;;;;;;5054643;28;20049;-61
2023/06/28 08:04:58;;;;;;;9.27;2.50;;;18.40;99.90;;;;;;5054474;28;20410;-61
2023/06/28 08:07:24;;;;;;;9.15;2.70;;;18.50;99.90;;;;;;5054440;28;20115;-61
2023/06/28 08:09:49;;;;;;;11.98;2.55;;;18.60;99.90;;;;;;5054353;28;20470;-58
2023/06/28 08:12:15;;;;;;;9.93;2.83;;;18.70;99.90;;;;;;5054529;28;20052;-60
2023/06/28 08:14:40;;;;;;;8.45;2.90;;;18.70;99.90;;;;;;5054249;28;20051;-57
2023/06/28 08:17:06;;;;;;;9.43;2.67;;;18.50;99.90;;;;;;5054337;28;20450;-60
2023/06/28 08:19:32;;;;;;;11.45;4.05;;;18.60;99.90;;;;;;5054176;28;20108;-61
2023/06/28 08:21:58;;;;;;;10.13;2.63;;;18.70;99.90;;;;;;5054245;28;20147;-61
2023/06/28 08:24:24;;;;;;;8.60;2.08;;;18.80;99.90;;;;;;5054265;28;20021;-61
2023/06/28 08:26:49;;;;;;;16.48;3.25;;;18.80;99.90;;;;;;5054017;28;20017;-59
2023/06/28 08:29:16;;;;;;;9.50;2.35;;;18.80;99.90;;;;;;5054150;28;20021;-59
2023/06/28 08:31:42;;;;;;;7.95;2.33;;;18.90;99.90;;;;;;5054098;28;20020;-59
2023/06/28 08:34:08;;;;;;;7.00;1.45;;;18.90;99.90;;;;;;5052906;28;20020;-59
2023/06/28 08:36:33;;;;;;;6.50;1.92;;;18.80;99.90;;;;;;5054014;28;20435;-56
2023/06/28 08:38:59;;;;;;;9.57;2.35;;;18.90;99.90;;;;;;5053819;28;20080;-60
2023/06/28 08:41:27;;;;;;;6.32;2.17;;;18.80;99.90;;;;;;5054117;28;20037;-61
2023/06/28 08:43:54;;;;;;;10.80;3.28;;;18.70;99.90;;;;;;5053805;28;20020;-57
2023/06/28 08:46:19;;;;;;;6.28;2.10;;;18.90;99.90;;;;;;5053680;28;20025;-60
2023/06/28 08:48:48;;;;;;;5.63;2.10;;;19.00;99.90;;;;;;5053917;28;20028;-59
2023/06/28 08:51:15;;;;;;;5.18;1.80;;;19.00;99.90;;;;;;5053980;28;20013;-59
2023/06/28 08:53:44;;;;;;;5.72;1.88;;;19.10;99.90;;;;;;5052574;28;20021;-57
2023/06/28 08:56:10;;;;;;;7.18;1.40;;;18.90;99.90;;;;;;5053991;28;20563;-57
2023/06/28 08:58:37;;;;;;;5.53;1.85;;;18.90;99.90;;;;;;5053145;28;20044;-59
2023/06/28 09:01:03;;;;;;;6.30;2.30;;;19.00;99.90;;;;;;5053686;28;20052;-56
2023/06/28 09:03:30;;;;;;;9.75;2.25;;;18.90;99.90;;;;;;5053484;28;20056;-59
2023/06/28 09:05:56;;;;;;;5.00;1.70;;;18.90;99.90;;;;;;5053405;28;20429;-59
2023/06/28 09:08:22;;;;;;;10.88;2.42;;;18.80;99.90;;;;;;5053323;28;20025;-59
2023/06/28 09:10:48;;;;;;;9.48;1.58;;;18.90;99.90;;;;;;5053339;28;20087;-58
2023/06/28 09:13:19;;;;;;;9.73;1.92;;;19.00;99.90;;;;;;5053209;28;20459;-60
2023/06/28 09:15:46;;;;;;;7.80;1.80;;;19.10;99.90;;;;;;5053206;28;20032;-60
2023/06/28 09:18:12;;;;;;;7.18;1.77;;;19.00;99.90;;;;;;5053092;28;20104;-59
2023/06/28 09:20:46;;;;;;;8.32;2.00;;;18.90;99.90;;;;;;5052980;28;20095;-61
2023/06/28 09:23:12;;;;;;;8.85;2.63;;;19.00;99.90;;;;;;5053125;28;20036;-59
2023/06/28 09:25:41;;;;;;;13.82;2.22;;;19.10;99.90;;;;;;5052917;28;20049;-62
2023/06/28 09:28:06;;;;;;;9.70;2.45;;;19.10;99.90;;;;;;5053035;28;20005;-55
2023/06/28 09:30:32;;;;;;;8.05;2.08;;;19.30;99.90;;;;;;5053002;28;20024;-60
2023/06/28 09:33:03;;;;;;;7.93;2.25;;;19.20;99.90;;;;;;5052799;28;20093;-60
2023/06/28 09:35:29;;;;;;;7.43;2.35;;;19.30;99.90;;;;;;5052924;28;20021;-58
2023/06/28 09:37:58;;;;;;;7.72;2.10;;;19.40;99.90;;;;;;5052646;28;20028;-60
2023/06/28 09:40:23;;;;;;;6.82;2.72;;;19.50;99.90;;;;;;5052682;28;20629;-58
2023/06/28 09:42:50;;;;;;;8.70;2.05;;;19.60;99.90;;;;;;5052696;28;20464;-57
2023/06/28 09:45:30;;;;;;;5.03;2.05;;;19.60;99.90;;;;;;5052715;28;20070;-56
2023/06/28 09:47:57;;;;;;;16.60;2.50;;;19.80;99.90;;;;;;5052433;28;20024;-55
2023/06/28 09:50:37;;;;;;;10.25;2.90;;;19.80;99.90;;;;;;5052700;28;20020;-58
2023/06/28 09:53:10;;;;;;;6.82;2.40;;;20.00;99.90;;;;;;5052805;28;20024;-59
2023/06/28 09:55:40;;;;;;;11.48;2.90;;;19.90;99.90;;;;;;5052534;28;20013;-56
2023/06/28 09:58:11;;;;;;;9.38;2.25;;;20.00;99.90;;;;;;5051001;28;20025;-53
2023/06/28 10:00:38;;;;;;;6.68;2.63;;;20.00;99.90;;;;;;5052237;28;20023;-62
2023/06/28 10:03:07;;;;;;;10.65;2.63;;;20.20;99.90;;;;;;5052139;28;20105;-56
2023/06/28 10:05:35;;;;;;;15.27;3.70;;;20.30;99.90;;;;;;5052019;28;20017;-60
2023/06/28 10:08:03;;;;;;;6.45;2.90;;;20.30;99.90;;;;;;5052096;28;20040;-58
2023/06/28 10:10:30;;;;;;;10.30;2.47;;;20.00;99.90;;;;;;5052291;28;20028;-60
2023/06/28 10:12:58;;;;;;;8.60;2.88;;;20.00;99.90;;;;;;5052062;28;20021;-56
2023/06/28 10:15:24;;;;;;;7.97;2.60;;;20.20;99.90;;;;;;5052079;28;20052;-60
2023/06/28 10:17:53;;;;;;;8.20;2.72;;;20.20;99.90;;;;;;5051911;28;20483;-58
2023/06/28 10:20:19;;;;;;;10.27;1.80;;;20.20;99.90;;;;;;5052079;28;20075;-58
2023/06/28 10:22:45;;;;;;;5.95;2.30;;;20.20;99.90;;;;;;5051924;28;20016;-59
2023/06/28 10:25:12;;;;;;;5.43;2.17;;;20.30;99.90;;;;;;5051997;28;20495;-62
2023/06/28 10:27:38;;;;;;;7.18;2.35;;;20.40;99.90;;;;;;5051896;28;20043;-59
2023/06/28 10:30:04;;;;;;;7.70;2.40;;;20.40;99.90;;;;;;5051795;28;20066;-56
2023/06/28 10:32:31;;;;;;;7.63;1.92;;;20.30;99.90;;;;;;5052004;28;20027;-61
2023/06/28 10:34:57;;;;;;;12.30;2.60;;;20.50;99.90;;;;;;5051926;28;20033;-59
2023/06/28 10:37:23;;;;;;;9.38;2.78;;;20.10;99.90;;;;;;5051909;28;20029;-59
2023/06/28 10:39:53;;;;;;;8.35;2.33;;;20.20;99.90;;;;;;5051590;28;20031;-59
2023/06/28 10:42:20;;;;;;;15.38;3.28;;;20.20;99.90;;;;;;5052063;28;20024;-55
2023/06/28 10:44:52;;;;;;;8.68;2.97;;;20.20;99.90;;;;;;5051393;28;20032;-58
2023/06/28 10:47:17;;;;;;;5.25;2.05;;;20.10;99.90;;;;;;5051552;28;20028;-56
2023/06/28 10:50:03;;;;;;;10.02;2.13;;;20.20;99.90;;;;;;5051587;28;20111;-57
2023/06/28 10:52:29;;;;;;;8.52;2.03;;;20.30;99.90;;;;;;5051679;28;20109;-56
2023/06/28 10:54:54;;;;;;;13.07;2.30;;;20.40;99.90;;;;;;5051495;28;20478;-57
2023/06/28 10:57:35;;;;;;;5.85;2.42;;;20.30;99.90;;;;;;5051405;28;20041;-54
2023/06/28 11:00:03;;;;;;;8.73;2.58;;;20.30;99.90;;;;;;5051455;28;20414;-57
2023/06/28 11:02:59;;;;;;;9.80;2.30;;;20.40;99.90;;;;;;5051564;28;20027;-55
2023/06/28 11:05:52;;;;;;;7.47;2.40;;;20.60;99.90;;;;;;5051450;28;20017;-59
2023/06/28 11:08:19;;;;;;;10.02;2.50;;;20.80;99.90;;;;;;5051037;28;20029;-58
2023/06/28 11:10:47;;;;;;;6.18;2.70;;;20.80;99.90;;;;;;5051492;28;20033;-56
2023/06/28 11:13:39;;;;;;;13.70;2.80;;;20.80;99.90;;;;;;5051357;28;20025;-59
2023/06/28 11:16:21;;;;;;;15.40;2.42;;;21.20;99.90;;;;;;5050187;28;20110;-59
2023/06/28 11:18:48;;;;;;;12.07;2.65;;;21.20;99.90;;;;;;5050954;28;20052;-61
2023/06/28 11:21:21;;;;;;;9.80;2.38;;;21.10;99.90;;;;;;5051349;28;20025;-58
2023/06/28 11:23:47;;;;;;;8.30;2.13;;;21.10;99.90;;;;;;5051280;28;20048;-60
2023/06/28 11:26:16;;;;;;;7.60;2.25;;;21.10;99.90;;;;;;5051199;28;20480;-59
2023/06/28 11:28:50;;;;;;;12.68;2.28;;;21.10;99.90;;;;;;5050900;28;20585;-59
2023/06/28 11:31:21;;;;;;;8.90;2.63;;;21.10;99.90;;;;;;5051268;28;20475;-60
2023/06/28 11:33:48;;;;;;;9.25;2.47;;;21.10;99.90;;;;;;5050975;28;20259;-56
2023/06/28 11:36:14;;;;;;;13.43;3.35;;;21.20;99.90;;;;;;5051235;28;20040;-59
2023/06/28 11:38:46;;;;;;;9.80;2.58;;;21.30;99.90;;;;;;5050873;28;20467;-55
2023/06/28 11:41:15;;;;;;;12.32;2.42;;;21.40;99.90;;;;;;5051072;28;20029;-57
2023/06/28 11:43:44;;;;;;;20.77;3.08;;;21.40;99.90;;;;;;5050697;28;20511;-59
2023/06/28 11:46:16;;;;;;;21.65;3.00;;;21.00;99.90;;;;;;5050981;28;20024;-61
2023/06/28 11:48:42;;;;;;;9.68;2.55;;;21.10;99.90;;;;;;5050764;28;20110;-59
2023/06/28 11:51:07;;;;;;;7.30;2.15;;;21.20;99.90;;;;;;5051062;28;20048;-56
2023/06/28 11:53:33;;;;;;;13.73;2.22;;;21.40;99.90;;;;;;5050821;28;20024;-58
2023/06/28 11:55:59;;;;;;;10.07;2.63;;;21.50;99.90;;;;;;5050789;28;20024;-58
2023/06/28 11:58:35;;;;;;;9.80;3.40;;;21.40;99.90;;;;;;5050852;28;20028;-60
2023/06/28 12:01:03;;;;;;;25.73;4.35;;;21.40;99.90;;;;;;5050954;28;20155;-61
2023/06/28 12:03:38;;;;;;;8.93;2.38;;;21.50;99.90;;;;;;5050976;28;20021;-58
2023/06/28 12:06:06;;;;;;;7.50;3.08;;;21.70;99.90;;;;;;5050801;28;20025;-56
2023/06/28 12:08:37;;;;;;;5.47;2.90;;;21.70;99.90;;;;;;5050666;28;20024;-56
2023/06/28 12:11:12;;;;;;;7.78;2.30;;;21.80;99.90;;;;;;5050866;28;20021;-57
2023/06/28 12:13:39;;;;;;;17.27;2.97;;;21.70;99.90;;;;;;5050779;28;20096;-56
2023/06/28 12:16:30;;;;;;;9.32;2.42;;;21.80;99.90;;;;;;5050847;28;20507;-55
2023/06/28 12:19:00;;;;;;;5.25;2.63;;;21.70;99.90;;;;;;5042169;28;20117;-56
2023/06/28 12:21:27;;;;;;;9.95;2.80;;;21.90;99.90;;;;;;5051003;28;20507;-60
2023/06/28 12:23:53;;;;;;;11.80;3.50;;;21.90;99.90;;;;;;5050688;28;20025;-58
2023/06/28 12:26:24;;;;;;;10.55;3.13;;;21.80;99.90;;;;;;5050800;28;20375;-56
2023/06/28 12:28:50;;;;;;;15.63;3.38;;;22.10;99.90;;;;;;5052654;28;20021;-57
2023/06/28 12:31:17;;;;;;;16.75;3.97;;;22.00;99.90;;;;;;5054482;28;20039;-57
2023/06/28 12:33:42;;;;;;;11.95;2.88;;;21.90;99.90;;;;;;5054180;28;20021;-60
2023/06/28 12:36:18;;;;;;;13.88;2.90;;;22.00;99.90;;;;;;5054332;28;20021;-56
2023/06/28 12:38:45;;;;;;;9.55;3.70;;;22.40;99.90;;;;;;5053940;28;20017;-56
2023/06/28 12:41:13;;;;;;;11.85;3.72;;;22.70;99.90;;;;;;5053888;28;20147;-60
2023/06/28 12:43:39;;;;;;;9.95;3.13;;;23.00;99.90;;;;;;5053791;28;20017;-60